KANJ

Sault Ste Marie Municipal / Sanderson Field Airport

Sault Ste Marie, Michigan, USA
METAR KANJ 211455Z AUTO 20004KT 10SM CLR 09/M06 A3043 RMK AO2 SLP309 T00891061 58003
Observed Flight Rules
Apr-21 @ 14:55 UTC (46 minutes ago) Visual Flight Rules
Wind Visibility Clouds
200° at 4 knots 10 miles
  • Clear skies
Temperatures Readings
Current 9°C / 48°F
Dewpoint -6°C / 21°F
Humidity 34%
Altimeter 30.43" Hg
Pressure 1030.9 hPa
Elevation 218
METAR KANJ 211455Z AUTO 20004KT 10SM CLR 09/M06 A3043 RMK AO2 SLP309 T00891061 58003
Observed Flight Rules
Apr-21 @ 14:55 UTC
(46 minutes ago)
VFR
Wind Visibility
200° at 4 knots 10 miles
Clouds
  • Clear skies
Temperature Dewpoint
9°C / 48°F -6°C / 21°F
Humidity Altimeter Pressure
34% 30.43" Hg 1030.9 hPa